Time;durP1;ratioP1;P1;durP2;ratioP2;P2;SDS_P1;SDS_P2;PMS_P1;PMS_P2;Temp;Humidity;BMP_temperature;BMP_pressure;BME280_temperature;BME280_humidity;BME280_pressure;Samples;Min_cycle;Max_cycle;Signal;HPM_P1;HPM_P2
2022/12/10 00:02:05;;;;;;;;;;;10.80;79.00;;;;;;5039789;28;92406;-40
2022/12/10 00:04:31;;;;;;;;;;;10.80;79.00;;;;;;5038825;27;93079;-40
2022/12/10 00:06:56;;;;;;;;;;;10.80;79.00;;;;;;5039394;28;92250;-40
2022/12/10 00:09:22;;;;;;;;;;;10.80;79.00;;;;;;5042026;28;92565;-40
2022/12/10 00:11:48;;;;;;;;;;;10.80;79.00;;;;;;5039681;28;91459;-40
2022/12/10 00:14:13;;;;;;;;;;;10.70;79.00;;;;;;5039342;27;92031;-40
2022/12/10 00:16:39;;;;;;;;;;;10.80;79.00;;;;;;5038970;28;92978;-40
2022/12/10 00:19:05;;;;;;;;;;;10.80;79.00;;;;;;5038625;28;93123;-40
2022/12/10 00:21:31;;;;;;;;;;;10.80;79.00;;;;;;5039323;28;93460;-40
2022/12/10 00:23:57;;;;;;;;;;;10.70;79.00;;;;;;5038545;28;94609;-40
2022/12/10 00:26:24;;;;;;;;;;;10.80;79.00;;;;;;5039338;28;92628;-40
2022/12/10 00:28:50;;;;;;;;;;;10.80;79.10;;;;;;5041772;27;92776;-40
2022/12/10 00:31:17;;;;;;;;;;;10.70;79.00;;;;;;5039313;28;92228;-40
2022/12/10 00:33:43;;;;;;;;;;;10.80;79.10;;;;;;5039021;27;92047;-40
2022/12/10 00:36:10;;;;;;;;;;;10.70;79.00;;;;;;5038781;28;92611;-40
2022/12/10 00:38:36;;;;;;;;;;;10.80;79.10;;;;;;5039081;28;92486;-40
2022/12/10 00:41:02;;;;;;;;;;;10.80;79.00;;;;;;5039338;27;91961;-40
2022/12/10 00:43:27;;;;;;;;;;;10.80;79.00;;;;;;5037843;28;93170;-40
2022/12/10 00:45:53;;;;;;;;;;;10.80;79.00;;;;;;5038485;28;92330;-40
2022/12/10 00:48:18;;;;;;;;;;;10.80;79.00;;;;;;5039155;28;92755;-40
2022/12/10 00:50:44;;;;;;;;;;;10.80;79.00;;;;;;5041452;28;94096;-40
2022/12/10 00:53:09;;;;;;;;;;;10.70;78.90;;;;;;5039020;27;92371;-40
2022/12/10 00:55:35;;;;;;;;;;;10.70;78.90;;;;;;5038302;28;93126;-40
2022/12/10 00:58:00;;;;;;;;;;;10.70;78.90;;;;;;5038868;28;92111;-40
2022/12/10 01:00:26;;;;;;;;;;;10.80;78.90;;;;;;5039401;28;92129;-40
2022/12/10 01:02:52;;;;;;;;;;;10.80;78.90;;;;;;5038173;28;93242;-40
2022/12/10 01:05:18;;;;;;;;;;;10.70;78.80;;;;;;5038477;28;92172;-40
2022/12/10 01:07:43;;;;;;;;;;;10.80;78.90;;;;;;5038451;28;94262;-40
2022/12/10 01:10:09;;;;;;;;;;;10.70;79.40;;;;;;5038180;28;93390;-40
2022/12/10 01:12:34;;;;;;;;;;;10.70;78.80;;;;;;5042018;28;92116;-40
2022/12/10 01:15:00;;;;;;;;;;;10.70;78.80;;;;;;5038432;27;93233;-40
2022/12/10 01:17:25;;;;;;;;;;;10.70;78.70;;;;;;5042137;28;92175;-40
2022/12/10 01:19:51;;;;;;;;;;;10.70;78.70;;;;;;5041926;28;92539;-40
2022/12/10 01:22:16;;;;;;;;;;;10.80;78.80;;;;;;5041540;28;92258;-40
2022/12/10 01:24:42;;;;;;;;;;;10.80;78.80;;;;;;5042586;28;91395;-40
2022/12/10 01:27:07;;;;;;;;;;;10.80;78.80;;;;;;5042264;27;92639;-40
2022/12/10 01:29:33;;;;;;;;;;;10.70;78.70;;;;;;5041429;28;93056;-40
2022/12/10 01:31:58;;;;;;;;;;;10.80;78.80;;;;;;5041210;28;93117;-40
2022/12/10 01:34:24;;;;;;;;;;;10.80;78.80;;;;;;5044415;28;93514;-40
2022/12/10 01:36:51;;;;;;;;;;;10.70;78.70;;;;;;5041380;28;92183;-40
2022/12/10 01:39:18;;;;;;;;;;;10.70;78.70;;;;;;5041973;27;92417;-40
2022/12/10 01:41:48;;;;;;;;;;;10.80;78.80;;;;;;5041332;28;93246;-40
2022/12/10 01:44:14;;;;;;;;;;;10.80;78.70;;;;;;5041702;28;92047;-40
2022/12/10 01:46:41;;;;;;;;;;;10.80;78.80;;;;;;5041238;27;93300;-40
2022/12/10 01:49:08;;;;;;;;;;;10.70;78.70;;;;;;5041275;28;92315;-40
2022/12/10 01:51:35;;;;;;;;;;;10.80;78.70;;;;;;5041621;28;92607;-40
2022/12/10 01:54:01;;;;;;;;;;;10.70;78.70;;;;;;5041558;27;92402;-40
2022/12/10 01:56:27;;;;;;;;;;;10.80;78.80;;;;;;5043651;28;94330;-40
2022/12/10 01:58:54;;;;;;;;;;;10.70;78.80;;;;;;5041481;28;93325;-40
2022/12/10 02:01:38;;;;;;;;;;;10.80;78.80;;;;;;5040642;28;94076;-40
2022/12/10 02:04:03;;;;;;;;;;;10.80;78.80;;;;;;5041247;27;92736;-40
2022/12/10 02:06:29;;;;;;;;;;;10.70;78.90;;;;;;5041606;27;92308;-40
2022/12/10 02:09:04;;;;;;;;;;;10.70;78.80;;;;;;5040871;28;93003;-40
2022/12/10 02:11:33;;;;;;;;;;;10.80;78.90;;;;;;5041162;28;92077;-40
2022/12/10 02:14:27;;;;;;;;;;;10.80;78.90;;;;;;5041781;27;92554;-40
2022/12/10 02:16:56;;;;;;;;;;;10.80;79.00;;;;;;5002467;28;92984;-40
2022/12/10 02:19:22;;;;;;;;;;;10.80;78.90;;;;;;5044271;28;91962;-40
2022/12/10 02:21:50;;;;;;;;;;;10.80;79.00;;;;;;5039973;28;94251;-40
2022/12/10 02:24:18;;;;;;;;;;;10.80;79.00;;;;;;5041129;28;92147;-40
2022/12/10 02:26:47;;;;;;;;;;;10.80;79.00;;;;;;5039691;27;93437;-40
2022/12/10 02:29:17;;;;;;;;;;;10.80;79.00;;;;;;5040300;28;92194;-40
2022/12/10 02:31:48;;;;;;;;;;;10.70;79.00;;;;;;5041055;28;92165;-40
2022/12/10 02:34:15;;;;;;;;;;;10.70;79.10;;;;;;5041053;27;92411;-40
2022/12/10 02:36:42;;;;;;;;;;;10.80;79.20;;;;;;5040259;28;93071;-40
2022/12/10 02:39:10;;;;;;;;;;;10.70;79.00;;;;;;5044429;28;91432;-40
2022/12/10 02:41:38;;;;;;;;;;;10.80;79.00;;;;;;5040193;28;93021;-40
2022/12/10 02:44:05;;;;;;;;;;;10.80;79.10;;;;;;5040695;28;92156;-40
2022/12/10 02:46:31;;;;;;;;;;;10.80;79.00;;;;;;5039832;28;93000;-40
2022/12/10 02:48:57;;;;;;;;;;;10.80;79.10;;;;;;5039961;28;94162;-40
2022/12/10 02:51:23;;;;;;;;;;;10.80;79.00;;;;;;5040603;28;92157;-40
2022/12/10 02:53:58;;;;;;;;;;;10.80;79.10;;;;;;5040493;28;92420;-40
2022/12/10 02:56:27;;;;;;;;;;;10.80;79.20;;;;;;5040013;28;93081;-40
2022/12/10 02:58:58;;;;;;;;;;;10.80;79.10;;;;;;5040432;28;92003;-40
2022/12/10 03:01:44;;;;;;;;;;;10.80;79.20;;;;;;5043036;28;92529;-40
2022/12/10 03:04:14;;;;;;;;;;;10.80;79.10;;;;;;5041023;28;91910;-40
2022/12/10 03:06:42;;;;;;;;;;;10.80;79.20;;;;;;5040409;27;92217;-41
2022/12/10 03:09:14;;;;;;;;;;;10.80;79.20;;;;;;5039866;28;93282;-40
2022/12/10 03:11:41;;;;;;;;;;;10.80;79.10;;;;;;5039917;28;93056;-40
2022/12/10 03:14:11;;;;;;;;;;;10.80;79.20;;;;;;5040166;28;93803;-40
2022/12/10 03:16:41;;;;;;;;;;;10.80;79.10;;;;;;5039501;28;93051;-40
2022/12/10 03:19:10;;;;;;;;;;;10.80;79.20;;;;;;5040204;28;92516;-40
2022/12/10 03:21:36;;;;;;;;;;;10.80;79.20;;;;;;5040117;28;92458;-40
2022/12/10 03:24:03;;;;;;;;;;;10.80;79.20;;;;;;5042558;28;93764;-40
2022/12/10 03:26:28;;;;;;;;;;;10.80;79.20;;;;;;5040208;27;91989;-40
2022/12/10 03:28:57;;;;;;;;;;;10.80;79.20;;;;;;5040160;28;91437;-41
2022/12/10 03:31:23;;;;;;;;;;;10.70;79.10;;;;;;5039943;28;92108;-40
2022/12/10 03:33:49;;;;;;;;;;;10.80;79.30;;;;;;5039803;28;92519;-40
2022/12/10 03:36:15;;;;;;;;;;;10.70;79.30;;;;;;5038505;28;93938;-40
2022/12/10 03:38:42;;;;;;;;;;;10.80;79.30;;;;;;5039466;27;92133;-40
2022/12/10 03:41:07;;;;;;;;;;;10.80;79.30;;;;;;5039997;27;92066;-40
2022/12/10 03:43:32;;;;;;;;;;;10.80;79.30;;;;;;5039472;28;93355;-40
2022/12/10 03:45:58;;;;;;;;;;;10.80;79.30;;;;;;5042524;28;92154;-40
2022/12/10 03:48:23;;;;;;;;;;;10.80;79.30;;;;;;5039290;28;92483;-40
2022/12/10 03:50:49;;;;;;;;;;;10.80;79.40;;;;;;5039722;28;92167;-40
2022/12/10 03:53:14;;;;;;;;;;;10.80;79.40;;;;;;5040175;28;92363;-40
2022/12/10 03:55:40;;;;;;;;;;;10.80;79.30;;;;;;5039124;28;92955;-40
2022/12/10 03:58:05;;;;;;;;;;;10.80;79.50;;;;;;5039725;28;92185;-40
2022/12/10 04:00:31;;;;;;;;;;;10.80;79.60;;;;;;5039061;28;92930;-40
2022/12/10 04:02:56;;;;;;;;;;;10.80;79.60;;;;;;5038821;28;93343;-40
2022/12/10 04:05:22;;;;;;;;;;;10.80;79.60;;;;;;5039663;28;92228;-40
2022/12/10 04:07:47;;;;;;;;;;;10.80;79.50;;;;;;5042252;28;92516;-40
2022/12/10 04:10:13;;;;;;;;;;;10.80;79.50;;;;;;5039553;28;92306;-40
2022/12/10 04:12:38;;;;;;;;;;;10.80;79.50;;;;;;5039586;28;92463;-40
2022/12/10 04:17:48;;;;;;;;;;;10.80;79.60;;;;;;5040031;28;91784;-40
2022/12/10 04:28:26;;;;;;;;;;;10.80;79.50;;;;;;5041918;28;92575;-40
2022/12/10 04:30:51;;;;;;;;;;;10.80;79.50;;;;;;5039299;28;92206;-40
2022/12/10 04:33:17;;;;;;;;;;;10.80;79.50;;;;;;5038994;27;93941;-40
2022/12/10 04:35:42;;;;;;;;;;;10.80;79.50;;;;;;5038424;28;93150;-41
2022/12/10 04:38:08;;;;;;;;;;;10.80;79.50;;;;;;5039251;28;92221;-40
2022/12/10 04:40:33;;;;;;;;;;;10.80;79.50;;;;;;5038776;28;92375;-40
2022/12/10 04:42:59;;;;;;;;;;;10.80;79.40;;;;;;5039109;28;92508;-40
2022/12/10 04:45:24;;;;;;;;;;;10.80;79.50;;;;;;5038563;28;92108;-40
2022/12/10 04:47:49;;;;;;;;;;;10.80;79.40;;;;;;5038842;28;92479;-40
2022/12/10 04:50:15;;;;;;;;;;;10.80;79.40;;;;;;5041531;27;94056;-40
2022/12/10 04:52:40;;;;;;;;;;;10.80;79.40;;;;;;5042510;28;93462;-40
2022/12/10 04:55:06;;;;;;;;;;;10.80;79.40;;;;;;5041778;28;93141;-40
2022/12/10 04:57:32;;;;;;;;;;;10.80;79.40;;;;;;5042712;28;92150;-40
2022/12/10 04:59:57;;;;;;;;;;;10.80;79.40;;;;;;5042551;28;92565;-40
2022/12/10 05:02:23;;;;;;;;;;;10.80;79.40;;;;;;5041941;28;93447;-40
2022/12/10 05:04:48;;;;;;;;;;;10.80;79.30;;;;;;5042570;28;92180;-40
2022/12/10 05:07:14;;;;;;;;;;;10.80;79.30;;;;;;5042822;27;91969;-40
2022/12/10 05:09:39;;;;;;;;;;;10.80;79.30;;;;;;5041602;28;93317;-40
2022/12/10 05:12:05;;;;;;;;;;;10.80;79.30;;;;;;5045320;28;92651;-40
2022/12/10 05:14:30;;;;;;;;;;;10.80;79.30;;;;;;5040540;28;95347;-40
2022/12/10 05:16:56;;;;;;;;;;;10.80;79.30;;;;;;5042218;28;92134;-40
2022/12/10 05:19:23;;;;;;;;;;;10.80;79.30;;;;;;5042232;28;92903;-40
2022/12/10 05:24:33;;;;;;;;;;;10.80;79.20;;;;;;5041872;28;92257;-40
2022/12/10 05:26:58;;;;;;;;;;;10.80;79.20;;;;;;5042101;27;92559;-40
2022/12/10 05:29:24;;;;;;;;;;;10.80;79.80;;;;;;5041601;28;92639;-40
2022/12/10 05:31:49;;;;;;;;;;;10.80;79.20;;;;;;5042635;28;91451;-40
2022/12/10 05:34:15;;;;;;;;;;;10.80;79.20;;;;;;5044467;28;92403;-40
2022/12/10 05:36:40;;;;;;;;;;;10.80;79.20;;;;;;5041567;28;92186;-40
2022/12/10 05:39:06;;;;;;;;;;;10.80;79.30;;;;;;5041081;28;92926;-40
2022/12/10 05:41:34;;;;;;;;;;;10.80;79.30;;;;;;5041157;28;92821;-40
2022/12/10 05:43:59;;;;;;;;;;;10.80;79.20;;;;;;5041748;28;91950;-40
2022/12/10 05:46:26;;;;;;;;;;;10.80;79.20;;;;;;5041480;27;92171;-40
2022/12/10 05:48:52;;;;;;;;;;;10.80;79.20;;;;;;5040903;28;92886;-40
2022/12/10 05:51:22;;;;;;;;;;;10.80;79.30;;;;;;5041746;28;91967;-40
2022/12/10 05:53:47;;;;;;;;;;;10.80;79.30;;;;;;5041423;28;92379;-40
2022/12/10 05:56:15;;;;;;;;;;;10.80;79.90;;;;;;5044468;28;93919;-40
2022/12/10 05:58:41;;;;;;;;;;;10.80;79.30;;;;;;5041332;27;92860;-41
2022/12/10 06:01:08;;;;;;;;;;;10.80;79.30;;;;;;5040375;27;93444;-40
2022/12/10 06:03:33;;;;;;;;;;;10.80;79.30;;;;;;5040808;28;92899;-40
2022/12/10 06:05:59;;;;;;;;;;;10.80;79.40;;;;;;5041494;28;93376;-40
2022/12/10 06:08:24;;;;;;;;;;;10.80;79.50;;;;;;5040738;28;93100;-41
2022/12/10 06:10:50;;;;;;;;;;;10.80;79.40;;;;;;5041386;28;92165;-41
2022/12/10 06:13:15;;;;;;;;;;;10.80;79.40;;;;;;5041437;28;92480;-40
2022/12/10 06:15:41;;;;;;;;;;;10.80;79.50;;;;;;5040597;28;93039;-40
2022/12/10 06:18:07;;;;;;;;;;;10.80;79.40;;;;;;5044373;28;92125;-40
2022/12/10 06:20:32;;;;;;;;;;;10.80;79.40;;;;;;5041431;28;92387;-40
2022/12/10 06:22:58;;;;;;;;;;;10.80;79.40;;;;;;5041256;28;92161;-40
2022/12/10 06:25:23;;;;;;;;;;;10.80;79.30;;;;;;5041218;28;92279;-40
2022/12/10 06:27:49;;;;;;;;;;;10.80;79.30;;;;;;5039969;28;94096;-40
2022/12/10 06:30:14;;;;;;;;;;;10.80;79.30;;;;;;5041054;28;92143;-40
2022/12/10 06:32:42;;;;;;;;;;;10.80;79.20;;;;;;5041146;27;92346;-40
2022/12/10 06:35:08;;;;;;;;;;;10.80;79.20;;;;;;5040321;28;92948;-41
2022/12/10 06:37:34;;;;;;;;;;;10.80;79.20;;;;;;5044140;28;92296;-41
2022/12/10 06:39:59;;;;;;;;;;;10.80;79.10;;;;;;5039029;28;96249;-41
2022/12/10 06:42:25;;;;;;;;;;;10.80;79.10;;;;;;5040765;28;92173;-41
2022/12/10 06:44:50;;;;;;;;;;;10.80;79.10;;;;;;5041095;28;91952;-41
2022/12/10 06:47:16;;;;;;;;;;;10.80;79.10;;;;;;5040303;28;93225;-41
2022/12/10 06:49:41;;;;;;;;;;;10.80;79.10;;;;;;5040623;28;92152;-40
2022/12/10 06:52:07;;;;;;;;;;;10.80;79.00;;;;;;5040131;28;93142;-41
2022/12/10 06:54:32;;;;;;;;;;;10.80;79.10;;;;;;5040110;28;93438;-41
2022/12/10 06:56:58;;;;;;;;;;;10.80;79.10;;;;;;5040623;28;92125;-41
2022/12/10 06:59:24;;;;;;;;;;;10.80;79.10;;;;;;5043199;28;92100;-40
2022/12/10 07:01:49;;;;;;;;;;;10.80;79.00;;;;;;5040562;28;92129;-40
2022/12/10 07:04:15;;;;;;;;;;;10.80;79.00;;;;;;5040673;28;92466;-41
2022/12/10 07:06:41;;;;;;;;;;;10.80;79.10;;;;;;5039855;28;92981;-41
2022/12/10 07:09:06;;;;;;;;;;;10.80;79.10;;;;;;5040609;28;91458;-41
2022/12/10 07:11:32;;;;;;;;;;;10.80;79.10;;;;;;5040461;28;91981;-40
2022/12/10 07:13:58;;;;;;;;;;;10.80;79.10;;;;;;5039005;28;92837;-40
2022/12/10 07:16:25;;;;;;;;;;;10.80;79.10;;;;;;5039633;28;93585;-40
2022/12/10 07:18:51;;;;;;;;;;;10.80;79.00;;;;;;5040138;27;94782;-40
2022/12/10 07:21:21;;;;;;;;;;;10.80;79.20;;;;;;5041332;28;95985;-40
2022/12/10 07:23:47;;;;;;;;;;;10.80;79.10;;;;;;5040198;28;92347;-40
2022/12/10 07:26:13;;;;;;;;;;;10.80;79.10;;;;;;5039595;28;92990;-40
2022/12/10 07:28:38;;;;;;;;;;;10.80;79.10;;;;;;5040136;28;92113;-40
2022/12/10 07:31:05;;;;;;;;;;;10.80;79.20;;;;;;5040389;28;92304;-40
2022/12/10 07:33:31;;;;;;;;;;;10.80;79.20;;;;;;5040092;28;92332;-40
2022/12/10 07:35:57;;;;;;;;;;;10.80;79.20;;;;;;5039979;28;92170;-40
2022/12/10 07:38:23;;;;;;;;;;;10.80;79.20;;;;;;5039778;28;92586;-40
2022/12/10 07:40:49;;;;;;;;;;;10.80;79.00;;;;;;5038874;28;94139;-40
2022/12/10 07:43:14;;;;;;;;;;;10.90;79.10;;;;;;5043138;28;92153;-40
2022/12/10 07:45:40;;;;;;;;;;;10.90;79.00;;;;;;5038552;28;93536;-40
2022/12/10 07:48:05;;;;;;;;;;;10.90;79.10;;;;;;5040102;28;92172;-40
2022/12/10 07:50:31;;;;;;;;;;;10.90;79.10;;;;;;5039875;28;93082;-40
2022/12/10 07:52:56;;;;;;;;;;;10.90;79.10;;;;;;5038892;28;94418;-40
2022/12/10 07:55:22;;;;;;;;;;;10.90;79.10;;;;;;5039798;28;92127;-40
2022/12/10 07:57:47;;;;;;;;;;;10.90;79.10;;;;;;5040296;28;92573;-40
2022/12/10 08:00:13;;;;;;;;;;;10.90;79.20;;;;;;5039200;28;93237;-40
2022/12/10 08:02:38;;;;;;;;;;;10.90;79.10;;;;;;5039449;28;92036;-40
2022/12/10 08:05:04;;;;;;;;;;;10.90;79.00;;;;;;5041834;28;92812;-41
2022/12/10 08:07:29;;;;;;;;;;;10.90;79.00;;;;;;5039147;28;92176;-41
2022/12/10 08:09:55;;;;;;;;;;;10.90;79.00;;;;;;5039779;28;92737;-40
2022/12/10 08:12:21;;;;;;;;;;;10.90;79.00;;;;;;5038857;28;93200;-40
2022/12/10 08:14:46;;;;;;;;;;;10.90;79.00;;;;;;5039512;28;92141;-40
2022/12/10 08:17:12;;;;;;;;;;;10.90;79.00;;;;;;5039641;28;92409;-40
2022/12/10 08:19:37;;;;;;;;;;;10.90;78.90;;;;;;5038902;28;92973;-40
2022/12/10 08:22:03;;;;;;;;;;;10.90;78.90;;;;;;5039767;28;91426;-41
2022/12/10 08:24:28;;;;;;;;;;;10.90;78.90;;;;;;5039210;27;92050;-40
2022/12/10 08:26:54;;;;;;;;;;;10.90;78.90;;;;;;5041851;28;92344;-40
2022/12/10 08:29:19;;;;;;;;;;;10.90;78.90;;;;;;5038747;28;93049;-40
2022/12/10 08:31:45;;;;;;;;;;;10.90;78.90;;;;;;5038767;28;92244;-40
2022/12/10 08:34:12;;;;;;;;;;;10.90;79.50;;;;;;5039090;28;92224;-40
2022/12/10 08:36:37;;;;;;;;;;;10.90;79.00;;;;;;5039062;28;92147;-40
2022/12/10 08:39:03;;;;;;;;;;;10.90;79.00;;;;;;5038391;28;93190;-40
2022/12/10 08:41:28;;;;;;;;;;;11.00;79.10;;;;;;5039139;28;92628;-40
2022/12/10 08:43:54;;;;;;;;;;;10.90;79.00;;;;;;5039130;28;91928;-40
2022/12/10 08:46:20;;;;;;;;;;;11.00;79.20;;;;;;5041429;28;93780;-40
2022/12/10 08:48:46;;;;;;;;;;;10.90;79.10;;;;;;5039286;27;92499;-40
2022/12/10 08:51:14;;;;;;;;;;;11.00;79.20;;;;;;5038828;28;92321;-40
2022/12/10 08:53:39;;;;;;;;;;;11.00;79.20;;;;;;5038153;28;93130;-40
2022/12/10 08:56:05;;;;;;;;;;;11.00;79.20;;;;;;5038832;28;93405;-40
2022/12/10 08:58:30;;;;;;;;;;;11.00;79.30;;;;;;5038479;28;92852;-40
2022/12/10 09:00:56;;;;;;;;;;;11.00;79.20;;;;;;5038856;28;92183;-40
2022/12/10 09:03:22;;;;;;;;;;;11.00;79.30;;;;;;5038717;28;93708;-40
2022/12/10 09:05:47;;;;;;;;;;;11.00;79.30;;;;;;5038373;28;93002;-40
2022/12/10 09:08:13;;;;;;;;;;;11.00;79.40;;;;;;5041663;28;92156;-40
2022/12/10 09:10:39;;;;;;;;;;;11.00;80.10;;;;;;5039060;28;92479;-40
2022/12/10 09:13:05;;;;;;;;;;;11.00;79.70;;;;;;5038725;28;92120;-40
2022/12/10 09:15:30;;;;;;;;;;;11.00;79.50;;;;;;5038747;28;92459;-40
2022/12/10 09:17:56;;;;;;;;;;;11.00;79.90;;;;;;5037633;28;94557;-40
2022/12/10 09:20:21;;;;;;;;;;;11.00;79.40;;;;;;5038823;28;92196;-40
2022/12/10 09:22:47;;;;;;;;;;;11.10;79.40;;;;;;5038638;28;92544;-40
2022/12/10 09:25:15;;;;;;;;;;;11.10;79.40;;;;;;5038387;28;92820;-40
2022/12/10 09:27:41;;;;;;;;;;;11.10;79.50;;;;;;5038323;28;92140;-40
2022/12/10 09:30:07;;;;;;;;;;;11.10;79.50;;;;;;5041098;27;92473;-40
2022/12/10 09:32:32;;;;;;;;;;;11.10;79.50;;;;;;5038564;28;92115;-40
2022/12/10 09:34:58;;;;;;;;;;;11.10;79.60;;;;;;5038994;28;92470;-40
2022/12/10 09:37:23;;;;;;;;;;;11.10;79.60;;;;;;5040023;27;92915;-40
2022/12/10 09:39:49;;;;;;;;;;;11.10;79.60;;;;;;5041814;28;92257;-40
2022/12/10 09:42:17;;;;;;;;;;;11.10;79.50;;;;;;5041601;28;92938;-40
2022/12/10 09:44:49;;;;;;;;;;;11.10;79.60;;;;;;5040940;28;93151;-40
2022/12/10 09:47:14;;;;;;;;;;;11.10;79.90;;;;;;5041884;28;92080;-41
2022/12/10 09:49:40;;;;;;;;;;;11.10;79.80;;;;;;5041844;27;92325;-40
2022/12/10 09:52:09;;;;;;;;;;;11.10;79.60;;;;;;5044185;28;93249;-40
2022/12/10 09:54:54;;;;;;;;;;;11.10;79.50;;;;;;5041547;27;92547;-40
2022/12/10 09:57:30;;;;;;;;;;;11.20;79.60;;;;;;5040386;27;92995;-40
2022/12/10 09:59:56;;;;;;;;;;;11.20;79.60;;;;;;5042163;28;91382;-40
2022/12/10 10:02:23;;;;;;;;;;;11.20;79.60;;;;;;5041593;27;92052;-40
2022/12/10 10:04:50;;;;;;;;;;;11.20;79.70;;;;;;5040661;28;94288;-41
2022/12/10 10:07:26;;;;;;;;;;;11.20;79.70;;;;;;5041125;28;93457;-41
2022/12/10 10:09:59;;;;;;;;;;;11.20;79.90;;;;;;5041396;27;93354;-40
2022/12/10 10:12:26;;;;;;;;;;;11.20;79.80;;;;;;5040801;28;92949;-41
2022/12/10 10:14:52;;;;;;;;;;;11.20;80.00;;;;;;5044485;28;92218;-40
2022/12/10 10:17:31;;;;;;;;;;;11.20;80.00;;;;;;5040510;28;93577;-40
2022/12/10 10:19:57;;;;;;;;;;;11.20;80.00;;;;;;5041068;28;92139;-40
2022/12/10 10:22:22;;;;;;;;;;;11.20;79.90;;;;;;5041229;28;92376;-41
2022/12/10 10:24:48;;;;;;;;;;;11.30;79.90;;;;;;5041204;28;93731;-41
2022/12/10 10:27:15;;;;;;;;;;;11.30;79.90;;;;;;5041375;28;92043;-40
2022/12/10 10:29:41;;;;;;;;;;;11.30;80.00;;;;;;5041022;28;92420;-40
2022/12/10 10:32:13;;;;;;;;;;;11.20;79.90;;;;;;5038270;28;95328;-40
2022/12/10 10:34:39;;;;;;;;;;;11.30;80.00;;;;;;5040796;28;92540;-40
2022/12/10 10:37:04;;;;;;;;;;;11.30;79.90;;;;;;5043388;27;92373;-40
2022/12/10 10:39:31;;;;;;;;;;;11.30;80.00;;;;;;5041067;28;92095;-40
2022/12/10 10:41:57;;;;;;;;;;;11.30;80.00;;;;;;5040844;27;92518;-41
2022/12/10 10:44:24;;;;;;;;;;;11.20;80.10;;;;;;5040286;28;92938;-41
2022/12/10 10:46:51;;;;;;;;;;;11.30;80.20;;;;;;5040625;28;92136;-40
2022/12/10 10:49:27;;;;;;;;;;;11.30;80.10;;;;;;5040302;27;91943;-40
2022/12/10 10:51:55;;;;;;;;;;;11.30;80.10;;;;;;5040402;28;92670;-40
2022/12/10 10:54:31;;;;;;;;;;;11.30;80.00;;;;;;5040500;28;92232;-40
2022/12/10 10:56:57;;;;;;;;;;;11.30;80.10;;;;;;5042531;28;93032;-40
2022/12/10 10:59:33;;;;;;;;;;;11.30;80.30;;;;;;5040723;28;92108;-41
2022/12/10 11:02:02;;;;;;;;;;;11.30;80.20;;;;;;5040800;28;92292;-41
2022/12/10 11:04:36;;;;;;;;;;;11.30;80.10;;;;;;5039962;28;93056;-40
2022/12/10 11:07:02;;;;;;;;;;;11.30;80.20;;;;;;5040620;28;92081;-40
2022/12/10 11:09:31;;;;;;;;;;;11.30;80.20;;;;;;5040361;27;92348;-40
2022/12/10 11:12:01;;;;;;;;;;;11.30;80.20;;;;;;5039593;28;93801;-40
2022/12/10 11:14:30;;;;;;;;;;;11.30;80.20;;;;;;5040772;28;91311;-40
2022/12/10 11:17:02;;;;;;;;;;;11.40;79.90;;;;;;5040123;28;92097;-40
2022/12/10 11:19:27;;;;;;;;;;;11.30;80.20;;;;;;5042775;28;93449;-40
2022/12/10 11:21:53;;;;;;;;;;;11.30;80.30;;;;;;5039446;28;92933;-40
2022/12/10 11:24:19;;;;;;;;;;;11.30;80.20;;;;;;5039923;28;93009;-40
2022/12/10 11:26:55;;;;;;;;;;;11.40;80.10;;;;;;5040150;28;92165;-41
2022/12/10 11:29:30;;;;;;;;;;;11.40;80.30;;;;;;5040456;27;92676;-40
2022/12/10 11:31:55;;;;;;;;;;;11.40;80.40;;;;;;5039645;28;93000;-40
2022/12/10 11:34:37;;;;;;;;;;;11.40;80.20;;;;;;5040123;28;92313;-40
2022/12/10 11:37:15;;;;;;;;;;;11.40;80.30;;;;;;5040232;28;92438;-40
2022/12/10 11:39:40;;;;;;;;;;;11.40;80.30;;;;;;5040105;28;92342;-40
2022/12/10 11:42:17;;;;;;;;;;;11.40;80.30;;;;;;5043142;28;92267;-40
2022/12/10 11:45:01;;;;;;;;;;;11.40;80.30;;;;;;5038929;28;92904;-41
2022/12/10 11:47:49;;;;;;;;;;;11.40;80.50;;;;;;5039577;27;92859;-40
2022/12/10 11:50:30;;;;;;;;;;;11.40;80.20;;;;;;5019567;27;93241;-40
2022/12/10 11:53:13;;;;;;;;;;;11.40;80.30;;;;;;5039190;28;93063;-40
2022/12/10 11:55:39;;;;;;;;;;;11.40;80.50;;;;;;5039789;28;92653;-40
2022/12/10 11:58:15;;;;;;;;;;;11.40;80.60;;;;;;5039876;28;92826;-40
2022/12/10 12:00:59;;;;;;;;;;;11.40;80.60;;;;;;5038966;27;93254;-40
2022/12/10 12:03:24;;;;;;;;;;;11.40;80.60;;;;;;5039968;28;92199;-40
2022/12/10 12:05:53;;;;;;;;;;;11.40;80.70;;;;;;5042220;28;93527;-40
2022/12/10 12:08:34;;;;;;;;;;;11.40;80.60;;;;;;5039192;28;92115;-40
2022/12/10 12:10:59;;;;;;;;;;;11.40;80.60;;;;;;5039700;28;92409;-40
2022/12/10 12:13:34;;;;;;;;;;;11.40;80.60;;;;;;5038341;28;95611;-40
2022/12/10 12:16:02;;;;;;;;;;;11.40;80.70;;;;;;5039254;28;92116;-40
2022/12/10 12:18:43;;;;;;;;;;;11.40;80.70;;;;;;5038978;27;93478;-40
2022/12/10 12:21:10;;;;;;;;;;;11.50;80.70;;;;;;5038752;28;94321;-40
2022/12/10 12:23:54;;;;;;;;;;;11.50;80.70;;;;;;5039646;28;92048;-40
2022/12/10 12:26:20;;;;;;;;;;;11.50;80.80;;;;;;5039485;27;92317;-40
2022/12/10 12:28:47;;;;;;;;;;;11.40;80.80;;;;;;5041565;28;94588;-40
2022/12/10 12:31:29;;;;;;;;;;;11.40;80.70;;;;;;5039532;27;92346;-40
2022/12/10 12:33:58;;;;;;;;;;;11.40;80.70;;;;;;5038950;28;93133;-40
2022/12/10 12:36:28;;;;;;;;;;;11.40;80.70;;;;;;5038991;28;92042;-40
2022/12/10 12:39:03;;;;;;;;;;;11.40;80.70;;;;;;5038282;27;93049;-40
2022/12/10 12:41:40;;;;;;;;;;;11.40;80.70;;;;;;5038526;28;93039;-40
2022/12/10 12:44:21;;;;;;;;;;;11.50;80.80;;;;;;5039387;28;92069;-40
2022/12/10 12:46:47;;;;;;;;;;;11.50;80.80;;;;;;5038746;28;92467;-40
2022/12/10 12:49:21;;;;;;;;;;;11.50;80.80;;;;;;5038600;28;94333;-40
2022/12/10 12:51:52;;;;;;;;;;;11.40;80.70;;;;;;5042205;28;91973;-40
2022/12/10 12:54:18;;;;;;;;;;;11.50;80.80;;;;;;5038511;28;93096;-40
2022/12/10 12:57:02;;;;;;;;;;;11.40;80.80;;;;;;5039381;28;91668;-40
2022/12/10 12:59:28;;;;;;;;;;;11.50;80.80;;;;;;5039032;28;91971;-40
2022/12/10 13:01:58;;;;;;;;;;;11.40;80.80;;;;;;5038315;28;93162;-41
2022/12/10 13:04:24;;;;;;;;;;;11.50;80.80;;;;;;5037864;27;93189;-40
2022/12/10 13:07:08;;;;;;;;;;;11.50;80.80;;;;;;5038964;28;93493;-40
2022/12/10 13:09:33;;;;;;;;;;;11.50;80.80;;;;;;5038358;27;93154;-41
2022/12/10 13:12:01;;;;;;;;;;;11.50;80.80;;;;;;5043783;27;92247;-41
2022/12/10 13:14:33;;;;;;;;;;;11.50;80.80;;;;;;5041847;28;93131;-41
2022/12/10 13:17:00;;;;;;;;;;;11.50;80.80;;;;;;5041828;28;92140;-41
2022/12/10 13:19:26;;;;;;;;;;;11.50;80.80;;;;;;5042400;28;92349;-40
2022/12/10 13:22:01;;;;;;;;;;;11.50;80.90;;;;;;5042130;28;92379;-40
2022/12/10 13:24:36;;;;;;;;;;;11.50;80.80;;;;;;5042264;28;92173;-40
2022/12/10 13:27:10;;;;;;;;;;;11.50;80.80;;;;;;5042193;27;92414;-40
2022/12/10 13:29:54;;;;;;;;;;;11.40;80.70;;;;;;5040540;28;94123;-41
2022/12/10 13:32:24;;;;;;;;;;;11.50;80.80;;;;;;5042187;27;92117;-40
2022/12/10 13:35:15;;;;;;;;;;;11.50;80.80;;;;;;5044278;27;94297;-40
2022/12/10 13:37:52;;;;;;;;;;;11.50;81.40;;;;;;5039332;28;93722;-40
2022/12/10 13:40:27;;;;;;;;;;;11.50;80.80;;;;;;5041821;27;94057;-40
2022/12/10 13:46:35;;;;;;;;;;;11.50;80.80;;;;;;5040836;28;91992;-40
2022/12/10 13:49:02;;;;;;;;;;;11.50;80.80;;;;;;4999862;28;92593;-40
2022/12/10 13:51:30;;;;;;;;;;;11.50;80.80;;;;;;5032537;27;94608;-40
2022/12/10 13:54:12;;;;;;;;;;;11.50;80.80;;;;;;5041735;28;92121;-40
2022/12/10 13:56:44;;;;;;;;;;;11.50;80.80;;;;;;5041011;27;93017;-40
2022/12/10 13:59:16;;;;;;;;;;;11.50;80.80;;;;;;5044281;28;93249;-40
2022/12/10 14:01:56;;;;;;;;;;;11.50;80.80;;;;;;5041867;28;92483;-40
2022/12/10 14:04:28;;;;;;;;;;;11.50;80.90;;;;;;5041178;28;93093;-40
2022/12/10 14:06:53;;;;;;;;;;;11.50;80.80;;;;;;5041686;28;92077;-40
2022/12/10 14:09:27;;;;;;;;;;;11.50;80.90;;;;;;5041480;27;92328;-40
2022/12/10 14:11:54;;;;;;;;;;;11.50;80.80;;;;;;5041141;28;92976;-40
2022/12/10 14:14:26;;;;;;;;;;;11.50;80.80;;;;;;5041631;28;91369;-40
2022/12/10 14:16:52;;;;;;;;;;;11.50;80.80;;;;;;5041225;27;92075;-40
2022/12/10 14:19:18;;;;;;;;;;;11.50;80.80;;;;;;5040751;28;93100;-40
2022/12/10 14:21:44;;;;;;;;;;;11.50;80.80;;;;;;5043905;27;93205;-40
2022/12/10 14:24:29;;;;;;;;;;;11.50;80.80;;;;;;5040678;28;94344;-40
2022/12/10 14:27:03;;;;;;;;;;;11.50;80.80;;;;;;5041019;28;92227;-40
2022/12/10 14:29:28;;;;;;;;;;;11.50;80.80;;;;;;5041261;27;92452;-40
2022/12/10 14:31:54;;;;;;;;;;;11.50;80.80;;;;;;5040665;28;91896;-40
2022/12/10 14:34:25;;;;;;;;;;;11.50;80.80;;;;;;5040909;28;92116;-40
2022/12/10 14:36:51;;;;;;;;;;;11.50;80.80;;;;;;5041050;28;92508;-40
2022/12/10 14:39:37;;;;;;;;;;;11.50;80.80;;;;;;5040656;28;92274;-40